Terminal Aerodrome Forecast
Issued by NWS

Home | Current Version | Previous Version | Text Only | Print | Product List | Glossary On
Versions: 1 2 3 4 5 6 7 8 9 10 11 12 13 14 15 16 17 18
000
FTUS41 KBOX 230534
TAFBED
TAF
KBED 230534Z 2306/2406 02007KT P6SM OVC015
     FM231500 02006KT P6SM BKN050
     FM231700 04005KT P6SM SCT050
     FM240000 05005KT P6SM SKC=

USA.gov is the U.S. government's official web portal to all federal, state and local government web resources and services.